Página principal
METAR-TAF:

METAR-TAF

Aeroportos :

Aeroporto Internacional de Belgrado

Belgrado, Sérvia

latitude: 44-49N, longitude: 020-17E, altura: 96 m

Observação actual do tempo

O boletim foi feito há 24 minutos, às 14:00 UTC
Vento 6 kt de sudeste, variando entre este e sul
Temperatura 30°C
Humidade 40%
Pressão 1015 hPa
Visibilidade 10 km ou mais
sem nuvens abaixo de 1500 metros e sem cumulonimbus

METAR: LYBE 201400Z 14006KT 090V170 CAVOK 30/15 Q1015 NOSIG

Hora: 16:24 (14:24 UTC)

Previsão

O boletim foi feito há 3 horas e 24 minutos, às 11:00 UTC
Previsão válida de 20 às 12 UTC a 21 às 12 UTC
Vento 5 kt de su-sudeste
Visibilidade 10 km ou mais
sem nuvens abaixo de 1500 metros e sem cumulonimbus
Probabilidade 40% :
Temporariamente
de 20 às 13 UTC a 20 às 17 UTC
Nuvens dispersasa uma altura de 3300 ft, Cumulonimbus.
Nuvens dispersasa uma altura de 4000 ft
trovoada, chuva

TAF: LYBE 201100Z 2012/2112 16005KT CAVOK TX33/2013Z TN19/2103Z PROB40 TEMPO 2013/2017 TSRA SCT033CB SCT040

Observações e previsões do tempo de mais de 4000 aeroportos (mensagens METAR e TAF).

As estações disponíveis são os pontos amarelos e vermelhos sobre o mapa.

Mova o rato sobre o mapa para ver o nome da estação.

Depois clique no ponto para visualizar as observações e previsões meteorológicas.

Para alterar o mapa : clique nos botões verdes com uma cruz preta para aumentar o zoom; no botão verde com uma pitada de zoom; ou nas setas verdes para mapas adjacentes.


METAR-TAF: